sensor_id;sensor_type;location;lat;lon;timestamp;P1;durP1;ratioP1;P2;durP2;ratioP2
81124;SDS011;71444;52.114;5.424;2023-08-06T00:00:53;9.25;;;5.00;;
81124;SDS011;71444;52.114;5.424;2023-08-06T00:03:33;10.00;;;4.78;;
81124;SDS011;71444;52.114;5.424;2023-08-06T00:06:13;8.18;;;4.57;;
81124;SDS011;71444;52.114;5.424;2023-08-06T00:08:52;9.93;;;4.80;;
81124;SDS011;71444;52.114;5.424;2023-08-06T00:11:32;11.93;;;5.20;;
81124;SDS011;71444;52.114;5.424;2023-08-06T00:14:12;12.50;;;5.13;;
81124;SDS011;71444;52.114;5.424;2023-08-06T00:16:55;9.15;;;4.70;;
81124;SDS011;71444;52.114;5.424;2023-08-06T00:19:35;10.23;;;4.82;;
81124;SDS011;71444;52.114;5.424;2023-08-06T00:22:15;11.27;;;5.68;;
81124;SDS011;71444;52.114;5.424;2023-08-06T00:27:52;8.40;;;4.20;;
81124;SDS011;71444;52.114;5.424;2023-08-06T00:30:35;12.57;;;5.38;;
81124;SDS011;71444;52.114;5.424;2023-08-06T00:33:18;8.32;;;5.00;;
81124;SDS011;71444;52.114;5.424;2023-08-06T00:35:57;11.00;;;4.80;;
81124;SDS011;71444;52.114;5.424;2023-08-06T00:38:37;8.80;;;4.90;;
81124;SDS011;71444;52.114;5.424;2023-08-06T00:41:16;10.50;;;4.85;;
81124;SDS011;71444;52.114;5.424;2023-08-06T00:43:59;8.77;;;4.90;;
81124;SDS011;71444;52.114;5.424;2023-08-06T00:46:41;8.93;;;4.85;;
81124;SDS011;71444;52.114;5.424;2023-08-06T00:49:21;11.25;;;5.15;;
81124;SDS011;71444;52.114;5.424;2023-08-06T00:52:00;10.63;;;5.05;;
81124;SDS011;71444;52.114;5.424;2023-08-06T00:54:44;9.45;;;4.97;;
81124;SDS011;71444;52.114;5.424;2023-08-06T00:57:25;9.43;;;5.25;;
81124;SDS011;71444;52.114;5.424;2023-08-06T01:00:05;9.63;;;4.68;;
81124;SDS011;71444;52.114;5.424;2023-08-06T01:02:45;12.43;;;4.60;;
81124;SDS011;71444;52.114;5.424;2023-08-06T01:05:32;12.20;;;5.13;;
81124;SDS011;71444;52.114;5.424;2023-08-06T01:18:05;10.70;;;5.40;;
81124;SDS011;71444;52.114;5.424;2023-08-06T01:20:45;11.13;;;5.00;;
81124;SDS011;71444;52.114;5.424;2023-08-06T01:29:35;13.68;;;5.47;;
81124;SDS011;71444;52.114;5.424;2023-08-06T01:32:23;11.70;;;5.90;;
81124;SDS011;71444;52.114;5.424;2023-08-06T01:35:06;10.57;;;5.80;;
81124;SDS011;71444;52.114;5.424;2023-08-06T01:37:52;12.18;;;5.30;;
81124;SDS011;71444;52.114;5.424;2023-08-06T01:40:44;10.48;;;5.80;;
81124;SDS011;71444;52.114;5.424;2023-08-06T01:43:33;11.57;;;6.00;;
81124;SDS011;71444;52.114;5.424;2023-08-06T01:46:16;11.80;;;6.25;;
81124;SDS011;71444;52.114;5.424;2023-08-06T01:48:56;12.80;;;6.38;;
81124;SDS011;71444;52.114;5.424;2023-08-06T01:51:35;10.50;;;5.53;;
81124;SDS011;71444;52.114;5.424;2023-08-06T01:54:17;11.43;;;5.93;;
81124;SDS011;71444;52.114;5.424;2023-08-06T01:56:57;13.27;;;6.40;;
81124;SDS011;71444;52.114;5.424;2023-08-06T01:59:42;9.25;;;5.35;;
81124;SDS011;71444;52.114;5.424;2023-08-06T02:02:21;10.77;;;5.70;;
81124;SDS011;71444;52.114;5.424;2023-08-06T02:05:01;10.23;;;5.95;;
81124;SDS011;71444;52.114;5.424;2023-08-06T02:07:41;13.93;;;6.57;;
81124;SDS011;71444;52.114;5.424;2023-08-06T02:10:20;14.07;;;6.50;;
81124;SDS011;71444;52.114;5.424;2023-08-06T02:13:07;11.95;;;6.32;;
81124;SDS011;71444;52.114;5.424;2023-08-06T02:15:47;14.88;;;6.97;;
81124;SDS011;71444;52.114;5.424;2023-08-06T02:21:23;11.63;;;6.13;;
81124;SDS011;71444;52.114;5.424;2023-08-06T02:24:12;13.88;;;6.80;;
81124;SDS011;71444;52.114;5.424;2023-08-06T02:26:52;13.77;;;7.32;;
81124;SDS011;71444;52.114;5.424;2023-08-06T02:29:44;17.77;;;7.82;;
81124;SDS011;71444;52.114;5.424;2023-08-06T02:32:27;14.50;;;8.05;;
81124;SDS011;71444;52.114;5.424;2023-08-06T02:35:17;13.73;;;7.75;;
81124;SDS011;71444;52.114;5.424;2023-08-06T02:37:56;17.20;;;7.90;;
81124;SDS011;71444;52.114;5.424;2023-08-06T02:40:36;15.35;;;8.20;;
81124;SDS011;71444;52.114;5.424;2023-08-06T02:43:21;19.10;;;8.80;;
81124;SDS011;71444;52.114;5.424;2023-08-06T02:46:01;15.57;;;7.97;;
81124;SDS011;71444;52.114;5.424;2023-08-06T02:48:41;13.32;;;6.93;;
81124;SDS011;71444;52.114;5.424;2023-08-06T02:51:23;14.63;;;7.43;;
81124;SDS011;71444;52.114;5.424;2023-08-06T02:54:03;12.65;;;8.20;;
81124;SDS011;71444;52.114;5.424;2023-08-06T02:56:43;12.93;;;7.07;;
81124;SDS011;71444;52.114;5.424;2023-08-06T02:59:24;14.93;;;7.18;;
81124;SDS011;71444;52.114;5.424;2023-08-06T03:02:11;14.00;;;6.70;;
81124;SDS011;71444;52.114;5.424;2023-08-06T03:04:51;12.82;;;6.75;;
81124;SDS011;71444;52.114;5.424;2023-08-06T03:07:36;11.55;;;6.57;;
81124;SDS011;71444;52.114;5.424;2023-08-06T03:10:16;12.77;;;6.75;;
81124;SDS011;71444;52.114;5.424;2023-08-06T03:13:01;10.95;;;6.03;;
81124;SDS011;71444;52.114;5.424;2023-08-06T03:15:41;13.10;;;6.72;;
81124;SDS011;71444;52.114;5.424;2023-08-06T03:21:11;13.68;;;6.65;;
81124;SDS011;71444;52.114;5.424;2023-08-06T03:23:51;11.00;;;6.22;;
81124;SDS011;71444;52.114;5.424;2023-08-06T03:26:37;11.57;;;5.82;;
81124;SDS011;71444;52.114;5.424;2023-08-06T03:29:24;12.77;;;5.65;;
81124;SDS011;71444;52.114;5.424;2023-08-06T03:32:04;11.35;;;5.75;;
81124;SDS011;71444;52.114;5.424;2023-08-06T03:34:43;11.73;;;6.05;;
81124;SDS011;71444;52.114;5.424;2023-08-06T03:37:23;10.95;;;5.85;;
81124;SDS011;71444;52.114;5.424;2023-08-06T03:40:11;10.77;;;5.30;;
81124;SDS011;71444;52.114;5.424;2023-08-06T03:42:51;10.95;;;5.75;;
81124;SDS011;71444;52.114;5.424;2023-08-06T03:45:30;12.30;;;6.40;;
81124;SDS011;71444;52.114;5.424;2023-08-06T03:48:10;11.57;;;5.93;;
81124;SDS011;71444;52.114;5.424;2023-08-06T03:50:50;11.13;;;6.07;;
81124;SDS011;71444;52.114;5.424;2023-08-06T03:53:29;11.43;;;6.20;;
81124;SDS011;71444;52.114;5.424;2023-08-06T03:58:51;12.00;;;6.43;;
81124;SDS011;71444;52.114;5.424;2023-08-06T04:01:30;12.85;;;6.78;;
81124;SDS011;71444;52.114;5.424;2023-08-06T04:04:10;11.27;;;6.40;;
81124;SDS011;71444;52.114;5.424;2023-08-06T04:06:49;13.90;;;6.60;;
81124;SDS011;71444;52.114;5.424;2023-08-06T04:09:29;13.85;;;7.10;;
81124;SDS011;71444;52.114;5.424;2023-08-06T04:12:09;12.63;;;7.47;;
81124;SDS011;71444;52.114;5.424;2023-08-06T04:14:49;13.05;;;6.95;;
81124;SDS011;71444;52.114;5.424;2023-08-06T04:17:34;12.70;;;7.13;;
81124;SDS011;71444;52.114;5.424;2023-08-06T04:20:14;13.65;;;7.05;;
81124;SDS011;71444;52.114;5.424;2023-08-06T04:25:56;12.48;;;6.38;;
81124;SDS011;71444;52.114;5.424;2023-08-06T04:28:36;13.38;;;7.00;;
81124;SDS011;71444;52.114;5.424;2023-08-06T04:31:15;13.88;;;7.63;;
81124;SDS011;71444;52.114;5.424;2023-08-06T04:33:55;12.93;;;7.50;;
81124;SDS011;71444;52.114;5.424;2023-08-06T04:36:36;12.77;;;7.18;;
81124;SDS011;71444;52.114;5.424;2023-08-06T04:39:29;15.38;;;8.23;;
81124;SDS011;71444;52.114;5.424;2023-08-06T04:42:17;15.20;;;7.68;;
81124;SDS011;71444;52.114;5.424;2023-08-06T04:45:03;16.20;;;8.05;;
81124;SDS011;71444;52.114;5.424;2023-08-06T04:47:43;16.63;;;8.52;;
81124;SDS011;71444;52.114;5.424;2023-08-06T04:50:31;15.05;;;8.25;;
81124;SDS011;71444;52.114;5.424;2023-08-06T04:53:19;18.00;;;8.38;;
81124;SDS011;71444;52.114;5.424;2023-08-06T04:56:04;17.05;;;8.75;;
81124;SDS011;71444;52.114;5.424;2023-08-06T04:58:44;16.35;;;8.13;;
81124;SDS011;71444;52.114;5.424;2023-08-06T05:01:31;16.92;;;8.57;;
81124;SDS011;71444;52.114;5.424;2023-08-06T05:04:11;18.17;;;8.80;;
81124;SDS011;71444;52.114;5.424;2023-08-06T05:06:51;16.67;;;8.75;;
81124;SDS011;71444;52.114;5.424;2023-08-06T05:12:27;15.63;;;8.18;;
81124;SDS011;71444;52.114;5.424;2023-08-06T05:15:06;16.10;;;8.45;;
81124;SDS011;71444;52.114;5.424;2023-08-06T05:17:47;16.38;;;8.35;;
81124;SDS011;71444;52.114;5.424;2023-08-06T05:20:26;16.35;;;8.70;;
81124;SDS011;71444;52.114;5.424;2023-08-06T05:25:58;16.67;;;8.63;;
81124;SDS011;71444;52.114;5.424;2023-08-06T05:28:37;15.68;;;8.57;;
81124;SDS011;71444;52.114;5.424;2023-08-06T05:31:19;16.88;;;9.18;;
81124;SDS011;71444;52.114;5.424;2023-08-06T05:33:58;15.82;;;8.75;;
81124;SDS011;71444;52.114;5.424;2023-08-06T05:36:47;18.30;;;9.43;;
81124;SDS011;71444;52.114;5.424;2023-08-06T05:39:30;17.23;;;9.50;;
81124;SDS011;71444;52.114;5.424;2023-08-06T05:42:21;17.00;;;9.02;;
81124;SDS011;71444;52.114;5.424;2023-08-06T05:45:01;16.20;;;8.38;;
81124;SDS011;71444;52.114;5.424;2023-08-06T05:50:31;15.95;;;9.48;;
81124;SDS011;71444;52.114;5.424;2023-08-06T05:53:10;16.80;;;9.27;;
81124;SDS011;71444;52.114;5.424;2023-08-06T05:55:50;19.30;;;9.95;;
81124;SDS011;71444;52.114;5.424;2023-08-06T05:58:30;16.40;;;9.05;;
81124;SDS011;71444;52.114;5.424;2023-08-06T06:01:09;18.30;;;9.57;;
81124;SDS011;71444;52.114;5.424;2023-08-06T06:03:49;18.48;;;9.05;;
81124;SDS011;71444;52.114;5.424;2023-08-06T06:06:29;16.48;;;9.75;;
81124;SDS011;71444;52.114;5.424;2023-08-06T06:09:08;18.90;;;9.50;;
81124;SDS011;71444;52.114;5.424;2023-08-06T06:11:48;15.48;;;8.57;;
81124;SDS011;71444;52.114;5.424;2023-08-06T06:14:28;18.73;;;9.48;;
81124;SDS011;71444;52.114;5.424;2023-08-06T06:17:07;16.83;;;9.07;;
81124;SDS011;71444;52.114;5.424;2023-08-06T06:19:52;16.30;;;8.57;;
81124;SDS011;71444;52.114;5.424;2023-08-06T06:22:32;15.88;;;8.70;;
81124;SDS011;71444;52.114;5.424;2023-08-06T06:25:12;16.55;;;8.75;;
81124;SDS011;71444;52.114;5.424;2023-08-06T06:27:51;17.45;;;9.73;;
81124;SDS011;71444;52.114;5.424;2023-08-06T06:30:37;18.33;;;10.32;;
81124;SDS011;71444;52.114;5.424;2023-08-06T06:33:16;20.00;;;10.18;;
81124;SDS011;71444;52.114;5.424;2023-08-06T06:35:56;18.55;;;9.75;;
81124;SDS011;71444;52.114;5.424;2023-08-06T06:38:35;18.65;;;9.90;;
81124;SDS011;71444;52.114;5.424;2023-08-06T06:41:15;18.48;;;8.93;;
81124;SDS011;71444;52.114;5.424;2023-08-06T06:43:55;18.50;;;9.70;;
81124;SDS011;71444;52.114;5.424;2023-08-06T06:46:35;16.55;;;8.95;;
81124;SDS011;71444;52.114;5.424;2023-08-06T06:49:14;20.23;;;9.80;;
81124;SDS011;71444;52.114;5.424;2023-08-06T06:51:54;18.27;;;9.63;;
81124;SDS011;71444;52.114;5.424;2023-08-06T06:54:34;19.65;;;9.63;;
81124;SDS011;71444;52.114;5.424;2023-08-06T06:57:13;17.38;;;9.38;;
81124;SDS011;71444;52.114;5.424;2023-08-06T06:59:53;18.27;;;9.05;;
81124;SDS011;71444;52.114;5.424;2023-08-06T07:02:33;17.55;;;9.25;;
81124;SDS011;71444;52.114;5.424;2023-08-06T07:05:13;15.55;;;8.65;;
81124;SDS011;71444;52.114;5.424;2023-08-06T07:07:52;16.75;;;9.07;;
81124;SDS011;71444;52.114;5.424;2023-08-06T07:10:32;17.45;;;9.10;;
81124;SDS011;71444;52.114;5.424;2023-08-06T07:13:11;17.65;;;9.30;;
81124;SDS011;71444;52.114;5.424;2023-08-06T07:15:51;17.25;;;8.90;;
81124;SDS011;71444;52.114;5.424;2023-08-06T07:18:31;16.83;;;9.48;;
81124;SDS011;71444;52.114;5.424;2023-08-06T07:21:10;15.07;;;8.43;;
81124;SDS011;71444;52.114;5.424;2023-08-06T07:23:50;16.17;;;8.40;;
81124;SDS011;71444;52.114;5.424;2023-08-06T07:26:30;17.33;;;8.73;;
81124;SDS011;71444;52.114;5.424;2023-08-06T07:29:09;16.60;;;8.70;;
81124;SDS011;71444;52.114;5.424;2023-08-06T07:31:49;18.48;;;9.23;;
81124;SDS011;71444;52.114;5.424;2023-08-06T07:34:29;17.73;;;8.80;;
81124;SDS011;71444;52.114;5.424;2023-08-06T07:37:10;18.27;;;9.52;;
81124;SDS011;71444;52.114;5.424;2023-08-06T07:40:00;20.23;;;9.80;;
81124;SDS011;71444;52.114;5.424;2023-08-06T07:42:48;15.90;;;9.38;;
81124;SDS011;71444;52.114;5.424;2023-08-06T07:48:28;17.80;;;8.95;;
81124;SDS011;71444;52.114;5.424;2023-08-06T07:51:17;17.35;;;8.65;;
81124;SDS011;71444;52.114;5.424;2023-08-06T07:53:56;16.88;;;9.55;;
81124;SDS011;71444;52.114;5.424;2023-08-06T07:56:37;17.73;;;9.38;;
81124;SDS011;71444;52.114;5.424;2023-08-06T07:59:25;17.10;;;9.00;;
81124;SDS011;71444;52.114;5.424;2023-08-06T08:02:09;16.98;;;9.57;;
81124;SDS011;71444;52.114;5.424;2023-08-06T08:04:57;18.40;;;9.52;;
81124;SDS011;71444;52.114;5.424;2023-08-06T08:10:26;10.32;;;4.30;;
81124;SDS011;71444;52.114;5.424;2023-08-06T08:13:06;7.60;;;3.20;;
81124;SDS011;71444;52.114;5.424;2023-08-06T08:15:56;7.50;;;2.80;;
81124;SDS011;71444;52.114;5.424;2023-08-06T08:18:45;5.93;;;2.90;;
81124;SDS011;71444;52.114;5.424;2023-08-06T08:21:25;6.30;;;2.35;;
81124;SDS011;71444;52.114;5.424;2023-08-06T08:24:08;5.78;;;2.45;;
81124;SDS011;71444;52.114;5.424;2023-08-06T08:26:47;5.82;;;2.25;;
81124;SDS011;71444;52.114;5.424;2023-08-06T08:29:36;4.97;;;2.17;;
81124;SDS011;71444;52.114;5.424;2023-08-06T08:35:12;4.20;;;1.88;;
81124;SDS011;71444;52.114;5.424;2023-08-06T08:37:53;3.90;;;1.60;;
81124;SDS011;71444;52.114;5.424;2023-08-06T08:40:40;3.92;;;1.70;;
81124;SDS011;71444;52.114;5.424;2023-08-06T08:46:12;3.90;;;1.63;;
81124;SDS011;71444;52.114;5.424;2023-08-06T08:49:02;4.88;;;1.55;;
81124;SDS011;71444;52.114;5.424;2023-08-06T08:51:45;4.80;;;1.73;;
81124;SDS011;71444;52.114;5.424;2023-08-06T08:54:27;4.30;;;1.98;;
81124;SDS011;71444;52.114;5.424;2023-08-06T08:57:19;4.32;;;1.92;;
81124;SDS011;71444;52.114;5.424;2023-08-06T09:00:05;3.67;;;1.65;;
81124;SDS011;71444;52.114;5.424;2023-08-06T09:02:57;4.00;;;1.90;;
81124;SDS011;71444;52.114;5.424;2023-08-06T09:05:40;3.90;;;1.80;;
81124;SDS011;71444;52.114;5.424;2023-08-06T09:08:43;3.78;;;1.73;;
81124;SDS011;71444;52.114;5.424;2023-08-06T09:11:37;3.85;;;1.80;;
81124;SDS011;71444;52.114;5.424;2023-08-06T09:14:24;3.83;;;1.80;;
81124;SDS011;71444;52.114;5.424;2023-08-06T09:17:05;4.72;;;2.17;;
81124;SDS011;71444;52.114;5.424;2023-08-06T09:19:49;4.07;;;2.08;;
81124;SDS011;71444;52.114;5.424;2023-08-06T09:22:33;4.85;;;2.28;;
81124;SDS011;71444;52.114;5.424;2023-08-06T09:25:22;6.55;;;2.10;;
81124;SDS011;71444;52.114;5.424;2023-08-06T09:28:07;4.32;;;2.10;;
81124;SDS011;71444;52.114;5.424;2023-08-06T09:30:52;5.93;;;2.60;;
81124;SDS011;71444;52.114;5.424;2023-08-06T09:33:41;4.85;;;2.40;;
81124;SDS011;71444;52.114;5.424;2023-08-06T09:36:31;5.00;;;2.38;;
81124;SDS011;71444;52.114;5.424;2023-08-06T09:42:05;4.85;;;2.28;;
81124;SDS011;71444;52.114;5.424;2023-08-06T09:44:53;6.78;;;2.25;;
81124;SDS011;71444;52.114;5.424;2023-08-06T09:47:45;5.68;;;2.33;;
81124;SDS011;71444;52.114;5.424;2023-08-06T09:50:28;6.45;;;3.00;;
81124;SDS011;71444;52.114;5.424;2023-08-06T09:53:19;7.00;;;2.80;;
81124;SDS011;71444;52.114;5.424;2023-08-06T09:55:59;4.95;;;2.33;;
81124;SDS011;71444;52.114;5.424;2023-08-06T09:58:39;6.65;;;2.60;;
81124;SDS011;71444;52.114;5.424;2023-08-06T10:01:28;7.70;;;3.25;;
81124;SDS011;71444;52.114;5.424;2023-08-06T10:04:16;7.72;;;3.30;;
81124;SDS011;71444;52.114;5.424;2023-08-06T10:06:59;6.47;;;2.80;;
81124;SDS011;71444;52.114;5.424;2023-08-06T10:09:48;8.73;;;3.40;;
81124;SDS011;71444;52.114;5.424;2023-08-06T10:12:32;6.63;;;3.05;;
81124;SDS011;71444;52.114;5.424;2023-08-06T10:15:39;6.20;;;3.03;;
81124;SDS011;71444;52.114;5.424;2023-08-06T10:18:32;8.93;;;3.13;;
81124;SDS011;71444;52.114;5.424;2023-08-06T10:21:25;8.40;;;3.40;;
81124;SDS011;71444;52.114;5.424;2023-08-06T10:24:07;7.22;;;2.85;;
81124;SDS011;71444;52.114;5.424;2023-08-06T10:26:49;7.60;;;3.25;;
81124;SDS011;71444;52.114;5.424;2023-08-06T10:29:36;7.93;;;3.03;;
81124;SDS011;71444;52.114;5.424;2023-08-06T10:32:46;6.47;;;2.85;;
81124;SDS011;71444;52.114;5.424;2023-08-06T10:35:27;7.32;;;3.15;;
81124;SDS011;71444;52.114;5.424;2023-08-06T10:41:07;9.15;;;3.35;;
81124;SDS011;71444;52.114;5.424;2023-08-06T10:44:05;6.85;;;3.00;;
81124;SDS011;71444;52.114;5.424;2023-08-06T10:46:49;8.40;;;3.00;;
81124;SDS011;71444;52.114;5.424;2023-08-06T10:49:31;7.85;;;3.08;;
81124;SDS011;71444;52.114;5.424;2023-08-06T10:52:11;8.07;;;3.42;;
81124;SDS011;71444;52.114;5.424;2023-08-06T10:57:41;6.28;;;2.88;;
81124;SDS011;71444;52.114;5.424;2023-08-06T11:00:24;4.90;;;2.25;;
81124;SDS011;71444;52.114;5.424;2023-08-06T11:03:04;5.70;;;2.30;;
81124;SDS011;71444;52.114;5.424;2023-08-06T11:05:50;5.60;;;2.67;;
81124;SDS011;71444;52.114;5.424;2023-08-06T11:08:33;7.68;;;2.50;;
81124;SDS011;71444;52.114;5.424;2023-08-06T11:11:15;5.22;;;2.28;;
81124;SDS011;71444;52.114;5.424;2023-08-06T11:14:02;5.82;;;1.95;;
81124;SDS011;71444;52.114;5.424;2023-08-06T11:16:47;6.35;;;2.33;;
81124;SDS011;71444;52.114;5.424;2023-08-06T11:19:28;5.57;;;2.35;;
81124;SDS011;71444;52.114;5.424;2023-08-06T11:22:08;4.78;;;2.58;;
81124;SDS011;71444;52.114;5.424;2023-08-06T11:24:49;4.90;;;2.03;;
81124;SDS011;71444;52.114;5.424;2023-08-06T11:27:28;6.82;;;2.38;;
81124;SDS011;71444;52.114;5.424;2023-08-06T11:30:10;4.50;;;1.80;;
81124;SDS011;71444;52.114;5.424;2023-08-06T11:35:30;4.55;;;1.92;;
81124;SDS011;71444;52.114;5.424;2023-08-06T11:38:14;6.38;;;1.98;;
81124;SDS011;71444;52.114;5.424;2023-08-06T11:40:54;4.57;;;2.20;;
81124;SDS011;71444;52.114;5.424;2023-08-06T11:43:45;5.22;;;2.10;;
81124;SDS011;71444;52.114;5.424;2023-08-06T11:46:25;5.47;;;2.17;;
81124;SDS011;71444;52.114;5.424;2023-08-06T11:49:05;4.25;;;1.60;;
81124;SDS011;71444;52.114;5.424;2023-08-06T11:51:45;4.28;;;1.73;;
81124;SDS011;71444;52.114;5.424;2023-08-06T11:54:31;5.35;;;2.15;;
81124;SDS011;71444;52.114;5.424;2023-08-06T11:57:13;6.82;;;2.20;;
81124;SDS011;71444;52.114;5.424;2023-08-06T11:59:54;6.07;;;1.80;;
81124;SDS011;71444;52.114;5.424;2023-08-06T12:02:34;5.80;;;2.03;;
81124;SDS011;71444;52.114;5.424;2023-08-06T12:08:02;4.43;;;1.75;;
81124;SDS011;71444;52.114;5.424;2023-08-06T12:10:42;4.63;;;2.00;;
81124;SDS011;71444;52.114;5.424;2023-08-06T12:13:22;4.28;;;1.80;;
81124;SDS011;71444;52.114;5.424;2023-08-06T12:16:02;4.95;;;1.65;;
81124;SDS011;71444;52.114;5.424;2023-08-06T12:18:52;5.40;;;1.85;;
81124;SDS011;71444;52.114;5.424;2023-08-06T12:21:32;5.03;;;2.05;;
81124;SDS011;71444;52.114;5.424;2023-08-06T12:24:11;4.32;;;1.67;;
81124;SDS011;71444;52.114;5.424;2023-08-06T12:26:51;4.80;;;1.55;;
81124;SDS011;71444;52.114;5.424;2023-08-06T12:29:31;2.80;;;1.10;;
81124;SDS011;71444;52.114;5.424;2023-08-06T12:32:11;4.78;;;1.58;;
81124;SDS011;71444;52.114;5.424;2023-08-06T12:34:55;5.18;;;1.48;;
81124;SDS011;71444;52.114;5.424;2023-08-06T12:37:35;6.00;;;1.60;;
81124;SDS011;71444;52.114;5.424;2023-08-06T12:40:16;7.45;;;1.50;;
81124;SDS011;71444;52.114;5.424;2023-08-06T12:42:56;5.18;;;1.55;;
81124;SDS011;71444;52.114;5.424;2023-08-06T12:45:39;5.50;;;2.17;;
81124;SDS011;71444;52.114;5.424;2023-08-06T12:48:18;3.83;;;1.30;;
81124;SDS011;71444;52.114;5.424;2023-08-06T12:50:58;3.33;;;1.33;;
81124;SDS011;71444;52.114;5.424;2023-08-06T12:53:35;3.70;;;1.63;;
81124;SDS011;71444;52.114;5.424;2023-08-06T12:56:14;4.78;;;1.30;;
81124;SDS011;71444;52.114;5.424;2023-08-06T12:59:04;4.53;;;1.33;;
81124;SDS011;71444;52.114;5.424;2023-08-06T13:01:44;4.35;;;2.00;;
81124;SDS011;71444;52.114;5.424;2023-08-06T13:04:23;5.55;;;1.50;;
81124;SDS011;71444;52.114;5.424;2023-08-06T13:07:04;3.83;;;1.40;;
81124;SDS011;71444;52.114;5.424;2023-08-06T13:09:44;5.82;;;1.55;;
81124;SDS011;71444;52.114;5.424;2023-08-06T13:12:24;5.50;;;1.55;;
81124;SDS011;71444;52.114;5.424;2023-08-06T13:15:04;7.60;;;1.70;;
81124;SDS011;71444;52.114;5.424;2023-08-06T13:17:44;5.35;;;1.60;;
81124;SDS011;71444;52.114;5.424;2023-08-06T13:20:24;8.00;;;1.83;;
81124;SDS011;71444;52.114;5.424;2023-08-06T13:23:05;4.28;;;1.63;;
81124;SDS011;71444;52.114;5.424;2023-08-06T13:25:44;3.45;;;1.23;;
81124;SDS011;71444;52.114;5.424;2023-08-06T13:28:24;5.55;;;1.40;;
81124;SDS011;71444;52.114;5.424;2023-08-06T13:31:04;3.55;;;1.48;;
81124;SDS011;71444;52.114;5.424;2023-08-06T13:33:43;5.47;;;1.50;;
81124;SDS011;71444;52.114;5.424;2023-08-06T13:36:25;4.38;;;1.75;;
81124;SDS011;71444;52.114;5.424;2023-08-06T13:39:06;7.07;;;1.60;;
81124;SDS011;71444;52.114;5.424;2023-08-06T13:41:46;5.20;;;1.50;;
81124;SDS011;71444;52.114;5.424;2023-08-06T13:44:25;4.10;;;1.40;;
81124;SDS011;71444;52.114;5.424;2023-08-06T13:47:06;4.20;;;1.65;;
81124;SDS011;71444;52.114;5.424;2023-08-06T13:49:46;6.15;;;1.40;;
81124;SDS011;71444;52.114;5.424;2023-08-06T13:52:27;4.10;;;1.50;;
81124;SDS011;71444;52.114;5.424;2023-08-06T13:55:07;3.72;;;1.50;;
81124;SDS011;71444;52.114;5.424;2023-08-06T13:57:47;5.97;;;2.08;;
81124;SDS011;71444;52.114;5.424;2023-08-06T14:00:27;4.40;;;1.45;;
81124;SDS011;71444;52.114;5.424;2023-08-06T14:03:06;6.32;;;1.50;;
81124;SDS011;71444;52.114;5.424;2023-08-06T14:05:46;6.25;;;1.40;;
81124;SDS011;71444;52.114;5.424;2023-08-06T14:08:26;4.15;;;1.48;;
81124;SDS011;71444;52.114;5.424;2023-08-06T14:11:06;5.70;;;1.60;;
81124;SDS011;71444;52.114;5.424;2023-08-06T14:13:46;4.63;;;1.70;;
81124;SDS011;71444;52.114;5.424;2023-08-06T14:16:26;8.65;;;1.83;;
81124;SDS011;71444;52.114;5.424;2023-08-06T14:19:06;4.30;;;1.60;;
81124;SDS011;71444;52.114;5.424;2023-08-06T14:21:46;5.80;;;2.00;;
81124;SDS011;71444;52.114;5.424;2023-08-06T14:24:25;6.45;;;1.85;;
81124;SDS011;71444;52.114;5.424;2023-08-06T14:27:05;4.00;;;1.80;;
81124;SDS011;71444;52.114;5.424;2023-08-06T14:29:45;3.58;;;1.48;;
81124;SDS011;71444;52.114;5.424;2023-08-06T14:32:25;5.13;;;2.05;;
81124;SDS011;71444;52.114;5.424;2023-08-06T14:35:05;5.47;;;1.92;;
81124;SDS011;71444;52.114;5.424;2023-08-06T14:37:45;4.38;;;1.63;;
81124;SDS011;71444;52.114;5.424;2023-08-06T14:40:29;3.88;;;1.85;;
81124;SDS011;71444;52.114;5.424;2023-08-06T14:43:13;4.18;;;1.70;;
81124;SDS011;71444;52.114;5.424;2023-08-06T14:45:53;4.18;;;1.88;;
81124;SDS011;71444;52.114;5.424;2023-08-06T14:48:33;3.63;;;1.50;;
81124;SDS011;71444;52.114;5.424;2023-08-06T14:51:12;4.30;;;1.73;;
81124;SDS011;71444;52.114;5.424;2023-08-06T14:53:52;5.38;;;1.48;;
81124;SDS011;71444;52.114;5.424;2023-08-06T14:56:32;4.72;;;1.40;;
81124;SDS011;71444;52.114;5.424;2023-08-06T14:59:11;4.82;;;1.60;;
81124;SDS011;71444;52.114;5.424;2023-08-06T15:01:51;3.97;;;1.50;;
81124;SDS011;71444;52.114;5.424;2023-08-06T15:04:31;4.22;;;1.90;;
81124;SDS011;71444;52.114;5.424;2023-08-06T15:07:22;3.53;;;1.60;;
81124;SDS011;71444;52.114;5.424;2023-08-06T15:10:01;4.30;;;1.70;;
81124;SDS011;71444;52.114;5.424;2023-08-06T15:12:42;3.40;;;1.55;;
81124;SDS011;71444;52.114;5.424;2023-08-06T15:15:22;3.72;;;1.42;;
81124;SDS011;71444;52.114;5.424;2023-08-06T15:18:06;3.65;;;1.30;;
81124;SDS011;71444;52.114;5.424;2023-08-06T15:20:45;3.45;;;1.17;;
81124;SDS011;71444;52.114;5.424;2023-08-06T15:23:25;4.45;;;1.45;;
81124;SDS011;71444;52.114;5.424;2023-08-06T15:26:05;5.35;;;1.45;;
81124;SDS011;71444;52.114;5.424;2023-08-06T15:28:44;5.10;;;1.60;;
81124;SDS011;71444;52.114;5.424;2023-08-06T15:31:24;3.88;;;1.15;;
81124;SDS011;71444;52.114;5.424;2023-08-06T15:34:19;3.40;;;1.20;;
81124;SDS011;71444;52.114;5.424;2023-08-06T15:36:59;6.03;;;1.05;;
81124;SDS011;71444;52.114;5.424;2023-08-06T15:39:38;4.55;;;1.10;;
81124;SDS011;71444;52.114;5.424;2023-08-06T15:42:18;3.80;;;0.80;;
81124;SDS011;71444;52.114;5.424;2023-08-06T15:44:58;3.72;;;0.73;;
81124;SDS011;71444;52.114;5.424;2023-08-06T15:47:48;4.00;;;1.00;;
81124;SDS011;71444;52.114;5.424;2023-08-06T15:50:31;6.45;;;0.95;;
81124;SDS011;71444;52.114;5.424;2023-08-06T15:53:10;4.55;;;0.90;;
81124;SDS011;71444;52.114;5.424;2023-08-06T15:55:56;5.50;;;0.80;;
81124;SDS011;71444;52.114;5.424;2023-08-06T15:58:42;5.13;;;0.90;;
81124;SDS011;71444;52.114;5.424;2023-08-06T16:01:30;6.93;;;1.15;;
81124;SDS011;71444;52.114;5.424;2023-08-06T16:04:13;5.70;;;1.08;;
81124;SDS011;71444;52.114;5.424;2023-08-06T16:07:03;2.55;;;0.70;;
81124;SDS011;71444;52.114;5.424;2023-08-06T16:09:45;3.20;;;1.02;;
81124;SDS011;71444;52.114;5.424;2023-08-06T16:12:34;4.80;;;0.95;;
81124;SDS011;71444;52.114;5.424;2023-08-06T16:15:22;5.40;;;1.27;;
81124;SDS011;71444;52.114;5.424;2023-08-06T16:18:07;5.60;;;0.90;;
81124;SDS011;71444;52.114;5.424;2023-08-06T16:20:56;5.32;;;1.38;;
81124;SDS011;71444;52.114;5.424;2023-08-06T16:26:32;6.25;;;1.00;;
81124;SDS011;71444;52.114;5.424;2023-08-06T16:29:21;4.88;;;0.88;;
81124;SDS011;71444;52.114;5.424;2023-08-06T16:32:02;6.18;;;0.95;;
81124;SDS011;71444;52.114;5.424;2023-08-06T16:34:50;3.30;;;1.00;;
81124;SDS011;71444;52.114;5.424;2023-08-06T16:37:39;4.97;;;0.80;;
81124;SDS011;71444;52.114;5.424;2023-08-06T16:40:21;4.25;;;0.73;;
81124;SDS011;71444;52.114;5.424;2023-08-06T16:43:02;6.53;;;0.80;;
81124;SDS011;71444;52.114;5.424;2023-08-06T16:45:46;3.97;;;0.80;;
81124;SDS011;71444;52.114;5.424;2023-08-06T16:51:24;5.88;;;0.70;;
81124;SDS011;71444;52.114;5.424;2023-08-06T16:54:03;5.40;;;0.95;;
81124;SDS011;71444;52.114;5.424;2023-08-06T16:59:37;5.20;;;0.98;;
81124;SDS011;71444;52.114;5.424;2023-08-06T17:02:20;4.70;;;1.13;;
81124;SDS011;71444;52.114;5.424;2023-08-06T17:04:59;2.45;;;0.73;;
81124;SDS011;71444;52.114;5.424;2023-08-06T17:07:43;5.20;;;1.00;;
81124;SDS011;71444;52.114;5.424;2023-08-06T17:10:26;4.60;;;1.63;;
81124;SDS011;71444;52.114;5.424;2023-08-06T17:13:08;7.80;;;1.05;;
81124;SDS011;71444;52.114;5.424;2023-08-06T17:15:48;5.03;;;0.80;;
81124;SDS011;71444;52.114;5.424;2023-08-06T17:18:38;4.25;;;1.15;;
81124;SDS011;71444;52.114;5.424;2023-08-06T17:21:24;2.10;;;0.60;;
81124;SDS011;71444;52.114;5.424;2023-08-06T17:24:16;4.35;;;1.08;;
81124;SDS011;71444;52.114;5.424;2023-08-06T17:27:04;3.40;;;0.95;;